sensor_id;sensor_type;location;lat;lon;timestamp;P1;durP1;ratioP1;P2;durP2;ratioP2
39994;SDS011;25686;51.908;10.418;2022-12-10T00:00:14;88.50;;;27.43;;
39994;SDS011;25686;51.908;10.418;2022-12-10T00:02:16;97.03;;;28.67;;
39994;SDS011;25686;51.908;10.418;2022-12-10T00:04:17;121.03;;;28.40;;
39994;SDS011;25686;51.908;10.418;2022-12-10T00:06:21;84.83;;;26.20;;
39994;SDS011;25686;51.908;10.418;2022-12-10T00:08:22;89.30;;;26.57;;
39994;SDS011;25686;51.908;10.418;2022-12-10T00:10:23;86.63;;;27.17;;
39994;SDS011;25686;51.908;10.418;2022-12-10T00:12:24;95.30;;;27.47;;
39994;SDS011;25686;51.908;10.418;2022-12-10T00:14:25;123.00;;;28.70;;
39994;SDS011;25686;51.908;10.418;2022-12-10T00:16:27;88.10;;;29.13;;
39994;SDS011;25686;51.908;10.418;2022-12-10T00:18:28;82.67;;;26.97;;
39994;SDS011;25686;51.908;10.418;2022-12-10T00:20:29;84.33;;;26.50;;
39994;SDS011;25686;51.908;10.418;2022-12-10T00:22:30;129.03;;;27.60;;
39994;SDS011;25686;51.908;10.418;2022-12-10T00:24:31;95.87;;;26.80;;
39994;SDS011;25686;51.908;10.418;2022-12-10T00:26:34;91.17;;;27.13;;
39994;SDS011;25686;51.908;10.418;2022-12-10T00:28:35;97.77;;;27.73;;
39994;SDS011;25686;51.908;10.418;2022-12-10T00:30:36;88.40;;;27.40;;
39994;SDS011;25686;51.908;10.418;2022-12-10T00:32:37;91.33;;;27.73;;
39994;SDS011;25686;51.908;10.418;2022-12-10T00:34:38;87.17;;;28.63;;
39994;SDS011;25686;51.908;10.418;2022-12-10T00:36:41;84.70;;;28.67;;
39994;SDS011;25686;51.908;10.418;2022-12-10T00:38:43;86.70;;;27.77;;
39994;SDS011;25686;51.908;10.418;2022-12-10T00:40:44;86.80;;;27.10;;
39994;SDS011;25686;51.908;10.418;2022-12-10T00:42:45;93.37;;;29.43;;
39994;SDS011;25686;51.908;10.418;2022-12-10T00:44:46;93.03;;;28.53;;
39994;SDS011;25686;51.908;10.418;2022-12-10T00:46:47;119.30;;;29.57;;
39994;SDS011;25686;51.908;10.418;2022-12-10T00:48:48;170.33;;;28.37;;
39994;SDS011;25686;51.908;10.418;2022-12-10T00:50:56;105.30;;;29.10;;
39994;SDS011;25686;51.908;10.418;2022-12-10T00:52:57;150.50;;;29.07;;
39994;SDS011;25686;51.908;10.418;2022-12-10T00:54:58;151.97;;;29.50;;
39994;SDS011;25686;51.908;10.418;2022-12-10T00:56:59;106.90;;;29.80;;
39994;SDS011;25686;51.908;10.418;2022-12-10T00:59:00;107.17;;;28.80;;
39994;SDS011;25686;51.908;10.418;2022-12-10T01:01:12;112.73;;;31.63;;
39994;SDS011;25686;51.908;10.418;2022-12-10T01:03:13;114.93;;;30.20;;
39994;SDS011;25686;51.908;10.418;2022-12-10T01:05:14;105.00;;;30.20;;
39994;SDS011;25686;51.908;10.418;2022-12-10T01:07:15;104.07;;;31.67;;
39994;SDS011;25686;51.908;10.418;2022-12-10T01:09:18;112.87;;;29.97;;
39994;SDS011;25686;51.908;10.418;2022-12-10T01:11:20;137.17;;;28.47;;
39994;SDS011;25686;51.908;10.418;2022-12-10T01:13:21;181.13;;;30.73;;
39994;SDS011;25686;51.908;10.418;2022-12-10T01:15:22;109.67;;;30.40;;
39994;SDS011;25686;51.908;10.418;2022-12-10T01:17:23;110.90;;;31.07;;
39994;SDS011;25686;51.908;10.418;2022-12-10T01:19:24;106.70;;;30.33;;
39994;SDS011;25686;51.908;10.418;2022-12-10T01:21:26;112.30;;;31.70;;
39994;SDS011;25686;51.908;10.418;2022-12-10T01:23:28;102.37;;;30.73;;
39994;SDS011;25686;51.908;10.418;2022-12-10T01:25:29;108.93;;;30.87;;
39994;SDS011;25686;51.908;10.418;2022-12-10T01:27:30;105.47;;;30.83;;
39994;SDS011;25686;51.908;10.418;2022-12-10T01:29:31;106.93;;;31.50;;
39994;SDS011;25686;51.908;10.418;2022-12-10T01:31:34;108.77;;;33.40;;
39994;SDS011;25686;51.908;10.418;2022-12-10T01:33:36;102.87;;;31.03;;
39994;SDS011;25686;51.908;10.418;2022-12-10T01:35:37;102.93;;;30.30;;
39994;SDS011;25686;51.908;10.418;2022-12-10T01:37:38;91.53;;;29.47;;
39994;SDS011;25686;51.908;10.418;2022-12-10T01:39:39;89.43;;;29.53;;
39994;SDS011;25686;51.908;10.418;2022-12-10T01:41:41;88.47;;;29.07;;
39994;SDS011;25686;51.908;10.418;2022-12-10T01:43:50;89.13;;;27.70;;
39994;SDS011;25686;51.908;10.418;2022-12-10T01:45:51;87.17;;;29.07;;
39994;SDS011;25686;51.908;10.418;2022-12-10T01:47:52;92.43;;;28.60;;
39994;SDS011;25686;51.908;10.418;2022-12-10T01:49:53;83.37;;;28.77;;
39994;SDS011;25686;51.908;10.418;2022-12-10T01:51:55;90.77;;;27.43;;
39994;SDS011;25686;51.908;10.418;2022-12-10T01:53:56;83.80;;;27.50;;
39994;SDS011;25686;51.908;10.418;2022-12-10T01:55:57;97.27;;;28.83;;
39994;SDS011;25686;51.908;10.418;2022-12-10T01:57:58;90.87;;;28.73;;
39994;SDS011;25686;51.908;10.418;2022-12-10T02:00:02;86.70;;;28.43;;
39994;SDS011;25686;51.908;10.418;2022-12-10T02:02:12;84.23;;;27.83;;
39994;SDS011;25686;51.908;10.418;2022-12-10T02:06:31;84.40;;;27.03;;
39994;SDS011;25686;51.908;10.418;2022-12-10T02:08:46;118.43;;;26.80;;
39994;SDS011;25686;51.908;10.418;2022-12-10T02:10:55;77.53;;;25.90;;
39994;SDS011;25686;51.908;10.418;2022-12-10T02:15:16;104.33;;;26.33;;
39994;SDS011;25686;51.908;10.418;2022-12-10T02:17:37;76.87;;;25.23;;
39994;SDS011;25686;51.908;10.418;2022-12-10T02:19:44;73.17;;;24.43;;
39994;SDS011;25686;51.908;10.418;2022-12-10T02:21:48;68.20;;;23.57;;
39994;SDS011;25686;51.908;10.418;2022-12-10T02:23:54;69.20;;;23.50;;
39994;SDS011;25686;51.908;10.418;2022-12-10T02:26:02;67.93;;;23.60;;
39994;SDS011;25686;51.908;10.418;2022-12-10T02:28:10;68.57;;;22.77;;
39994;SDS011;25686;51.908;10.418;2022-12-10T02:30:11;68.77;;;23.10;;
39994;SDS011;25686;51.908;10.418;2022-12-10T02:32:14;69.20;;;23.37;;
39994;SDS011;25686;51.908;10.418;2022-12-10T02:34:16;69.37;;;23.10;;
39994;SDS011;25686;51.908;10.418;2022-12-10T02:36:18;63.63;;;23.00;;
39994;SDS011;25686;51.908;10.418;2022-12-10T02:38:28;58.73;;;21.90;;
39994;SDS011;25686;51.908;10.418;2022-12-10T02:40:31;56.07;;;20.40;;
39994;SDS011;25686;51.908;10.418;2022-12-10T02:42:34;62.70;;;22.30;;
39994;SDS011;25686;51.908;10.418;2022-12-10T02:44:37;59.97;;;22.40;;
39994;SDS011;25686;51.908;10.418;2022-12-10T02:46:41;54.50;;;20.17;;
39994;SDS011;25686;51.908;10.418;2022-12-10T02:48:43;60.67;;;21.13;;
39994;SDS011;25686;51.908;10.418;2022-12-10T02:50:46;55.03;;;22.07;;
39994;SDS011;25686;51.908;10.418;2022-12-10T02:52:47;54.80;;;20.57;;
39994;SDS011;25686;51.908;10.418;2022-12-10T02:54:48;59.00;;;22.20;;
39994;SDS011;25686;51.908;10.418;2022-12-10T02:56:52;59.63;;;21.70;;
39994;SDS011;25686;51.908;10.418;2022-12-10T02:59:11;58.40;;;21.83;;
39994;SDS011;25686;51.908;10.418;2022-12-10T03:01:41;60.70;;;22.47;;
39994;SDS011;25686;51.908;10.418;2022-12-10T03:03:42;58.47;;;21.67;;
39994;SDS011;25686;51.908;10.418;2022-12-10T03:06:03;62.00;;;21.93;;
39994;SDS011;25686;51.908;10.418;2022-12-10T03:12:43;60.00;;;21.33;;
39994;SDS011;25686;51.908;10.418;2022-12-10T03:14:42;57.23;;;21.80;;
39994;SDS011;25686;51.908;10.418;2022-12-10T03:16:45;58.97;;;21.23;;
39994;SDS011;25686;51.908;10.418;2022-12-10T03:18:49;56.50;;;21.10;;
39994;SDS011;25686;51.908;10.418;2022-12-10T03:20:52;58.90;;;20.53;;
39994;SDS011;25686;51.908;10.418;2022-12-10T03:22:54;59.10;;;20.97;;
39994;SDS011;25686;51.908;10.418;2022-12-10T03:24:55;52.67;;;21.47;;
39994;SDS011;25686;51.908;10.418;2022-12-10T03:26:58;54.53;;;21.43;;
39994;SDS011;25686;51.908;10.418;2022-12-10T03:29:03;51.77;;;19.93;;
39994;SDS011;25686;51.908;10.418;2022-12-10T03:31:06;61.17;;;21.40;;
39994;SDS011;25686;51.908;10.418;2022-12-10T03:33:08;58.93;;;21.37;;
39994;SDS011;25686;51.908;10.418;2022-12-10T03:35:09;53.03;;;20.43;;
39994;SDS011;25686;51.908;10.418;2022-12-10T03:37:12;56.57;;;20.37;;
39994;SDS011;25686;51.908;10.418;2022-12-10T03:39:13;53.27;;;20.33;;
39994;SDS011;25686;51.908;10.418;2022-12-10T03:41:15;54.33;;;20.90;;
39994;SDS011;25686;51.908;10.418;2022-12-10T03:43:16;53.90;;;21.37;;
39994;SDS011;25686;51.908;10.418;2022-12-10T03:45:17;57.63;;;20.70;;
39994;SDS011;25686;51.908;10.418;2022-12-10T03:47:18;51.70;;;19.10;;
39994;SDS011;25686;51.908;10.418;2022-12-10T03:49:20;53.43;;;21.23;;
39994;SDS011;25686;51.908;10.418;2022-12-10T03:51:21;55.73;;;20.23;;
39994;SDS011;25686;51.908;10.418;2022-12-10T03:53:21;54.93;;;20.70;;
39994;SDS011;25686;51.908;10.418;2022-12-10T03:55:22;54.07;;;20.27;;
39994;SDS011;25686;51.908;10.418;2022-12-10T03:57:23;56.57;;;20.50;;
39994;SDS011;25686;51.908;10.418;2022-12-10T03:59:25;52.37;;;21.00;;
39994;SDS011;25686;51.908;10.418;2022-12-10T04:01:26;52.60;;;20.20;;
39994;SDS011;25686;51.908;10.418;2022-12-10T04:03:27;50.80;;;19.10;;
39994;SDS011;25686;51.908;10.418;2022-12-10T04:05:28;51.53;;;20.77;;
39994;SDS011;25686;51.908;10.418;2022-12-10T04:07:28;51.83;;;19.63;;
39994;SDS011;25686;51.908;10.418;2022-12-10T04:09:29;55.17;;;20.63;;
39994;SDS011;25686;51.908;10.418;2022-12-10T04:11:31;53.67;;;20.80;;
39994;SDS011;25686;51.908;10.418;2022-12-10T04:13:32;49.23;;;19.87;;
39994;SDS011;25686;51.908;10.418;2022-12-10T04:15:52;57.27;;;20.50;;
39994;SDS011;25686;51.908;10.418;2022-12-10T04:18:11;50.80;;;19.40;;
39994;SDS011;25686;51.908;10.418;2022-12-10T04:20:12;50.17;;;18.60;;
39994;SDS011;25686;51.908;10.418;2022-12-10T04:22:31;53.90;;;19.23;;
39994;SDS011;25686;51.908;10.418;2022-12-10T04:24:51;54.60;;;18.90;;
39994;SDS011;25686;51.908;10.418;2022-12-10T04:27:12;49.57;;;19.40;;
39994;SDS011;25686;51.908;10.418;2022-12-10T04:29:13;53.23;;;20.00;;
39994;SDS011;25686;51.908;10.418;2022-12-10T04:31:14;54.13;;;21.00;;
39994;SDS011;25686;51.908;10.418;2022-12-10T04:33:15;61.00;;;21.57;;
39994;SDS011;25686;51.908;10.418;2022-12-10T04:35:16;69.10;;;23.80;;
39994;SDS011;25686;51.908;10.418;2022-12-10T04:37:18;74.00;;;25.37;;
39994;SDS011;25686;51.908;10.418;2022-12-10T04:39:19;71.17;;;24.33;;
39994;SDS011;25686;51.908;10.418;2022-12-10T04:41:20;81.83;;;26.57;;
39994;SDS011;25686;51.908;10.418;2022-12-10T04:43:21;76.10;;;25.40;;
39994;SDS011;25686;51.908;10.418;2022-12-10T04:45:22;85.50;;;27.20;;
39994;SDS011;25686;51.908;10.418;2022-12-10T04:47:23;83.07;;;26.73;;
39994;SDS011;25686;51.908;10.418;2022-12-10T04:49:24;80.93;;;27.63;;
39994;SDS011;25686;51.908;10.418;2022-12-10T04:51:25;83.73;;;27.50;;
39994;SDS011;25686;51.908;10.418;2022-12-10T04:53:26;85.63;;;27.80;;
39994;SDS011;25686;51.908;10.418;2022-12-10T04:55:27;176.23;;;28.90;;
39994;SDS011;25686;51.908;10.418;2022-12-10T04:57:28;86.23;;;28.17;;
39994;SDS011;25686;51.908;10.418;2022-12-10T04:59:29;81.30;;;27.90;;
39994;SDS011;25686;51.908;10.418;2022-12-10T05:01:30;87.93;;;26.67;;
39994;SDS011;25686;51.908;10.418;2022-12-10T05:03:31;85.77;;;27.60;;
39994;SDS011;25686;51.908;10.418;2022-12-10T05:05:33;85.73;;;28.57;;
39994;SDS011;25686;51.908;10.418;2022-12-10T05:07:34;82.07;;;27.70;;
39994;SDS011;25686;51.908;10.418;2022-12-10T05:09:35;89.90;;;28.27;;
39994;SDS011;25686;51.908;10.418;2022-12-10T05:11:38;93.77;;;28.23;;
39994;SDS011;25686;51.908;10.418;2022-12-10T05:13:39;91.23;;;28.37;;
39994;SDS011;25686;51.908;10.418;2022-12-10T05:15:40;93.40;;;28.93;;
39994;SDS011;25686;51.908;10.418;2022-12-10T05:17:41;93.10;;;27.90;;
39994;SDS011;25686;51.908;10.418;2022-12-10T05:19:42;88.67;;;27.30;;
39994;SDS011;25686;51.908;10.418;2022-12-10T05:21:43;95.93;;;27.93;;
39994;SDS011;25686;51.908;10.418;2022-12-10T05:24:02;92.57;;;28.63;;
39994;SDS011;25686;51.908;10.418;2022-12-10T05:26:07;95.83;;;28.53;;
39994;SDS011;25686;51.908;10.418;2022-12-10T05:28:09;92.67;;;28.33;;
39994;SDS011;25686;51.908;10.418;2022-12-10T05:30:10;92.20;;;28.17;;
39994;SDS011;25686;51.908;10.418;2022-12-10T05:32:11;87.63;;;27.63;;
39994;SDS011;25686;51.908;10.418;2022-12-10T05:34:12;89.90;;;28.63;;
39994;SDS011;25686;51.908;10.418;2022-12-10T05:36:14;99.30;;;29.17;;
39994;SDS011;25686;51.908;10.418;2022-12-10T05:38:15;121.13;;;27.33;;
39994;SDS011;25686;51.908;10.418;2022-12-10T05:40:16;90.90;;;28.07;;
39994;SDS011;25686;51.908;10.418;2022-12-10T05:42:17;97.80;;;28.90;;
39994;SDS011;25686;51.908;10.418;2022-12-10T05:44:18;100.03;;;29.10;;
39994;SDS011;25686;51.908;10.418;2022-12-10T05:46:20;103.30;;;29.07;;
39994;SDS011;25686;51.908;10.418;2022-12-10T05:48:21;102.77;;;28.17;;
39994;SDS011;25686;51.908;10.418;2022-12-10T05:50:22;104.77;;;29.50;;
39994;SDS011;25686;51.908;10.418;2022-12-10T05:52:23;91.07;;;28.20;;
39994;SDS011;25686;51.908;10.418;2022-12-10T05:54:24;95.40;;;28.57;;
39994;SDS011;25686;51.908;10.418;2022-12-10T05:56:25;89.03;;;27.13;;
39994;SDS011;25686;51.908;10.418;2022-12-10T05:58:27;96.13;;;28.37;;
39994;SDS011;25686;51.908;10.418;2022-12-10T06:00:29;96.00;;;28.80;;
39994;SDS011;25686;51.908;10.418;2022-12-10T06:02:32;90.53;;;26.60;;
39994;SDS011;25686;51.908;10.418;2022-12-10T06:04:33;94.13;;;27.80;;
39994;SDS011;25686;51.908;10.418;2022-12-10T06:06:35;97.87;;;28.37;;
39994;SDS011;25686;51.908;10.418;2022-12-10T06:08:36;89.50;;;27.60;;
39994;SDS011;25686;51.908;10.418;2022-12-10T06:10:38;92.10;;;29.57;;
39994;SDS011;25686;51.908;10.418;2022-12-10T06:12:39;91.97;;;26.50;;
39994;SDS011;25686;51.908;10.418;2022-12-10T06:14:40;77.03;;;24.30;;
39994;SDS011;25686;51.908;10.418;2022-12-10T06:16:41;86.60;;;27.50;;
39994;SDS011;25686;51.908;10.418;2022-12-10T06:18:42;82.20;;;25.60;;
39994;SDS011;25686;51.908;10.418;2022-12-10T06:20:43;86.53;;;25.80;;
39994;SDS011;25686;51.908;10.418;2022-12-10T06:22:44;84.17;;;24.50;;
39994;SDS011;25686;51.908;10.418;2022-12-10T06:24:45;77.87;;;25.17;;
39994;SDS011;25686;51.908;10.418;2022-12-10T06:26:46;73.40;;;23.93;;
39994;SDS011;25686;51.908;10.418;2022-12-10T06:28:47;86.57;;;26.20;;
39994;SDS011;25686;51.908;10.418;2022-12-10T06:30:48;87.77;;;26.50;;
39994;SDS011;25686;51.908;10.418;2022-12-10T06:32:49;84.03;;;25.00;;
39994;SDS011;25686;51.908;10.418;2022-12-10T06:34:50;84.03;;;25.80;;
39994;SDS011;25686;51.908;10.418;2022-12-10T06:36:51;83.67;;;24.63;;
39994;SDS011;25686;51.908;10.418;2022-12-10T06:38:52;77.80;;;24.33;;
39994;SDS011;25686;51.908;10.418;2022-12-10T06:40:53;78.33;;;24.77;;
39994;SDS011;25686;51.908;10.418;2022-12-10T06:42:54;87.30;;;25.20;;
39994;SDS011;25686;51.908;10.418;2022-12-10T06:44:55;78.27;;;24.30;;
39994;SDS011;25686;51.908;10.418;2022-12-10T06:46:56;74.50;;;23.80;;
39994;SDS011;25686;51.908;10.418;2022-12-10T06:48:57;78.63;;;24.73;;
39994;SDS011;25686;51.908;10.418;2022-12-10T06:50:59;75.17;;;22.73;;
39994;SDS011;25686;51.908;10.418;2022-12-10T06:53:00;69.57;;;21.53;;
39994;SDS011;25686;51.908;10.418;2022-12-10T06:55:01;74.93;;;21.63;;
39994;SDS011;25686;51.908;10.418;2022-12-10T06:57:02;76.40;;;23.33;;
39994;SDS011;25686;51.908;10.418;2022-12-10T06:59:05;76.50;;;22.60;;
39994;SDS011;25686;51.908;10.418;2022-12-10T07:01:07;71.63;;;21.67;;
39994;SDS011;25686;51.908;10.418;2022-12-10T07:03:08;75.90;;;22.70;;
39994;SDS011;25686;51.908;10.418;2022-12-10T07:05:09;73.53;;;22.37;;
39994;SDS011;25686;51.908;10.418;2022-12-10T07:07:10;75.90;;;23.57;;
39994;SDS011;25686;51.908;10.418;2022-12-10T07:09:11;75.07;;;22.97;;
39994;SDS011;25686;51.908;10.418;2022-12-10T07:11:13;74.10;;;22.30;;
39994;SDS011;25686;51.908;10.418;2022-12-10T07:13:14;76.57;;;22.60;;
39994;SDS011;25686;51.908;10.418;2022-12-10T07:15:15;79.50;;;23.77;;
39994;SDS011;25686;51.908;10.418;2022-12-10T07:17:16;74.63;;;22.60;;
39994;SDS011;25686;51.908;10.418;2022-12-10T07:19:17;78.47;;;23.40;;
39994;SDS011;25686;51.908;10.418;2022-12-10T07:21:25;77.93;;;24.03;;
39994;SDS011;25686;51.908;10.418;2022-12-10T07:23:27;82.07;;;24.10;;
39994;SDS011;25686;51.908;10.418;2022-12-10T07:25:28;82.83;;;24.43;;
39994;SDS011;25686;51.908;10.418;2022-12-10T07:27:30;83.10;;;23.63;;
39994;SDS011;25686;51.908;10.418;2022-12-10T07:29:31;76.93;;;23.07;;
39994;SDS011;25686;51.908;10.418;2022-12-10T07:31:33;78.60;;;22.77;;
39994;SDS011;25686;51.908;10.418;2022-12-10T07:33:34;75.00;;;22.27;;
39994;SDS011;25686;51.908;10.418;2022-12-10T07:35:37;75.10;;;23.13;;
39994;SDS011;25686;51.908;10.418;2022-12-10T07:37:38;78.67;;;22.87;;
39994;SDS011;25686;51.908;10.418;2022-12-10T07:39:39;75.77;;;23.03;;
39994;SDS011;25686;51.908;10.418;2022-12-10T07:41:43;77.00;;;23.17;;
39994;SDS011;25686;51.908;10.418;2022-12-10T07:43:45;77.67;;;22.87;;
39994;SDS011;25686;51.908;10.418;2022-12-10T07:45:46;81.53;;;23.83;;
39994;SDS011;25686;51.908;10.418;2022-12-10T07:47:47;87.13;;;24.63;;
39994;SDS011;25686;51.908;10.418;2022-12-10T07:49:48;74.20;;;22.00;;
39994;SDS011;25686;51.908;10.418;2022-12-10T07:51:49;81.30;;;23.47;;
39994;SDS011;25686;51.908;10.418;2022-12-10T07:53:51;79.30;;;23.07;;
39994;SDS011;25686;51.908;10.418;2022-12-10T07:55:53;77.90;;;22.20;;
39994;SDS011;25686;51.908;10.418;2022-12-10T07:57:54;71.43;;;20.77;;
39994;SDS011;25686;51.908;10.418;2022-12-10T07:59:55;75.67;;;20.53;;
39994;SDS011;25686;51.908;10.418;2022-12-10T08:01:56;74.23;;;21.43;;
39994;SDS011;25686;51.908;10.418;2022-12-10T08:03:57;74.47;;;21.27;;
39994;SDS011;25686;51.908;10.418;2022-12-10T08:06:02;77.57;;;21.93;;
39994;SDS011;25686;51.908;10.418;2022-12-10T08:08:03;84.00;;;22.97;;
39994;SDS011;25686;51.908;10.418;2022-12-10T08:10:04;82.80;;;23.73;;
39994;SDS011;25686;51.908;10.418;2022-12-10T08:12:05;83.03;;;22.63;;
39994;SDS011;25686;51.908;10.418;2022-12-10T08:14:06;81.37;;;23.97;;
39994;SDS011;25686;51.908;10.418;2022-12-10T08:16:18;86.70;;;24.83;;
39994;SDS011;25686;51.908;10.418;2022-12-10T08:18:19;90.27;;;25.13;;
39994;SDS011;25686;51.908;10.418;2022-12-10T08:20:21;95.80;;;26.07;;
39994;SDS011;25686;51.908;10.418;2022-12-10T08:22:22;93.30;;;27.30;;
39994;SDS011;25686;51.908;10.418;2022-12-10T08:24:23;93.97;;;27.53;;
39994;SDS011;25686;51.908;10.418;2022-12-10T08:26:25;96.80;;;27.20;;
39994;SDS011;25686;51.908;10.418;2022-12-10T08:28:27;96.63;;;27.53;;
39994;SDS011;25686;51.908;10.418;2022-12-10T08:30:28;93.53;;;26.07;;
39994;SDS011;25686;51.908;10.418;2022-12-10T08:32:29;87.90;;;25.03;;
39994;SDS011;25686;51.908;10.418;2022-12-10T08:34:30;91.20;;;26.90;;
39994;SDS011;25686;51.908;10.418;2022-12-10T08:36:31;95.30;;;27.87;;
39994;SDS011;25686;51.908;10.418;2022-12-10T08:38:32;86.87;;;26.50;;
39994;SDS011;25686;51.908;10.418;2022-12-10T08:40:38;93.63;;;28.83;;
39994;SDS011;25686;51.908;10.418;2022-12-10T08:42:39;89.20;;;28.03;;
39994;SDS011;25686;51.908;10.418;2022-12-10T08:44:40;95.97;;;27.97;;
39994;SDS011;25686;51.908;10.418;2022-12-10T08:46:41;87.60;;;28.63;;
39994;SDS011;25686;51.908;10.418;2022-12-10T08:48:42;91.83;;;29.03;;
39994;SDS011;25686;51.908;10.418;2022-12-10T08:50:43;87.93;;;28.13;;
39994;SDS011;25686;51.908;10.418;2022-12-10T08:52:45;79.10;;;25.07;;
39994;SDS011;25686;51.908;10.418;2022-12-10T08:54:46;89.87;;;26.67;;
39994;SDS011;25686;51.908;10.418;2022-12-10T08:56:47;94.73;;;28.97;;
39994;SDS011;25686;51.908;10.418;2022-12-10T08:58:48;96.73;;;29.53;;
39994;SDS011;25686;51.908;10.418;2022-12-10T09:00:49;101.10;;;28.90;;
39994;SDS011;25686;51.908;10.418;2022-12-10T09:02:50;94.10;;;29.70;;
39994;SDS011;25686;51.908;10.418;2022-12-10T09:04:51;98.50;;;29.67;;
39994;SDS011;25686;51.908;10.418;2022-12-10T09:06:52;96.03;;;28.03;;
39994;SDS011;25686;51.908;10.418;2022-12-10T09:08:53;94.20;;;28.60;;
39994;SDS011;25686;51.908;10.418;2022-12-10T09:10:54;86.63;;;27.37;;
39994;SDS011;25686;51.908;10.418;2022-12-10T09:12:55;91.90;;;29.63;;
39994;SDS011;25686;51.908;10.418;2022-12-10T09:14:56;94.83;;;29.40;;
39994;SDS011;25686;51.908;10.418;2022-12-10T09:16:57;84.33;;;27.67;;
39994;SDS011;25686;51.908;10.418;2022-12-10T09:18:59;87.87;;;28.17;;
39994;SDS011;25686;51.908;10.418;2022-12-10T09:21:03;86.50;;;28.37;;
39994;SDS011;25686;51.908;10.418;2022-12-10T09:23:04;93.97;;;29.47;;
39994;SDS011;25686;51.908;10.418;2022-12-10T09:25:06;90.10;;;26.63;;
39994;SDS011;25686;51.908;10.418;2022-12-10T09:27:07;90.17;;;26.97;;
39994;SDS011;25686;51.908;10.418;2022-12-10T09:29:08;84.50;;;26.00;;
39994;SDS011;25686;51.908;10.418;2022-12-10T09:31:09;83.83;;;26.87;;
39994;SDS011;25686;51.908;10.418;2022-12-10T09:33:10;93.53;;;29.70;;
39994;SDS011;25686;51.908;10.418;2022-12-10T09:35:11;93.30;;;28.77;;
39994;SDS011;25686;51.908;10.418;2022-12-10T09:37:12;84.20;;;27.53;;
39994;SDS011;25686;51.908;10.418;2022-12-10T09:39:13;68.63;;;25.20;;
39994;SDS011;25686;51.908;10.418;2022-12-10T09:45:37;65.13;;;22.50;;
39994;SDS011;25686;51.908;10.418;2022-12-10T09:52:06;65.23;;;22.33;;
39994;SDS011;25686;51.908;10.418;2022-12-10T09:54:31;61.17;;;22.23;;
39994;SDS011;25686;51.908;10.418;2022-12-10T09:56:33;61.50;;;22.00;;
39994;SDS011;25686;51.908;10.418;2022-12-10T09:58:35;62.27;;;22.10;;
39994;SDS011;25686;51.908;10.418;2022-12-10T10:00:40;55.00;;;21.90;;
39994;SDS011;25686;51.908;10.418;2022-12-10T10:02:42;55.47;;;21.57;;
39994;SDS011;25686;51.908;10.418;2022-12-10T10:04:43;52.93;;;19.97;;
39994;SDS011;25686;51.908;10.418;2022-12-10T10:06:44;59.60;;;22.13;;
39994;SDS011;25686;51.908;10.418;2022-12-10T10:08:46;50.20;;;19.27;;
39994;SDS011;25686;51.908;10.418;2022-12-10T10:10:48;54.60;;;21.30;;
39994;SDS011;25686;51.908;10.418;2022-12-10T10:12:54;49.03;;;17.93;;
39994;SDS011;25686;51.908;10.418;2022-12-10T10:14:55;51.07;;;18.80;;
39994;SDS011;25686;51.908;10.418;2022-12-10T10:17:01;56.43;;;21.07;;
39994;SDS011;25686;51.908;10.418;2022-12-10T10:19:11;56.70;;;21.57;;
39994;SDS011;25686;51.908;10.418;2022-12-10T10:21:19;55.97;;;20.30;;
39994;SDS011;25686;51.908;10.418;2022-12-10T10:23:21;51.90;;;19.73;;
39994;SDS011;25686;51.908;10.418;2022-12-10T10:25:22;47.00;;;18.37;;
39994;SDS011;25686;51.908;10.418;2022-12-10T10:27:24;54.97;;;19.57;;
39994;SDS011;25686;51.908;10.418;2022-12-10T10:29:26;45.47;;;18.17;;
39994;SDS011;25686;51.908;10.418;2022-12-10T10:31:28;55.17;;;19.47;;
39994;SDS011;25686;51.908;10.418;2022-12-10T10:33:30;53.57;;;20.20;;
39994;SDS011;25686;51.908;10.418;2022-12-10T10:35:32;55.53;;;20.90;;
39994;SDS011;25686;51.908;10.418;2022-12-10T10:39:35;53.50;;;21.33;;
39994;SDS011;25686;51.908;10.418;2022-12-10T10:41:36;57.40;;;21.93;;
39994;SDS011;25686;51.908;10.418;2022-12-10T10:43:40;57.13;;;21.87;;
39994;SDS011;25686;51.908;10.418;2022-12-10T10:45:47;55.70;;;22.37;;
39994;SDS011;25686;51.908;10.418;2022-12-10T10:47:49;59.67;;;23.27;;
39994;SDS011;25686;51.908;10.418;2022-12-10T10:50:03;64.23;;;24.97;;
39994;SDS011;25686;51.908;10.418;2022-12-10T10:52:06;72.13;;;27.00;;
39994;SDS011;25686;51.908;10.418;2022-12-10T10:54:07;71.10;;;27.73;;
39994;SDS011;25686;51.908;10.418;2022-12-10T10:56:18;71.97;;;25.77;;
39994;SDS011;25686;51.908;10.418;2022-12-10T10:58:21;64.63;;;23.93;;
39994;SDS011;25686;51.908;10.418;2022-12-10T11:00:22;69.43;;;25.23;;
39994;SDS011;25686;51.908;10.418;2022-12-10T11:02:30;68.63;;;26.53;;
39994;SDS011;25686;51.908;10.418;2022-12-10T11:04:45;67.93;;;25.60;;
39994;SDS011;25686;51.908;10.418;2022-12-10T11:06:46;62.87;;;23.30;;
39994;SDS011;25686;51.908;10.418;2022-12-10T11:08:49;62.60;;;25.03;;
39994;SDS011;25686;51.908;10.418;2022-12-10T11:10:52;62.50;;;23.67;;
39994;SDS011;25686;51.908;10.418;2022-12-10T11:12:56;61.87;;;23.33;;
39994;SDS011;25686;51.908;10.418;2022-12-10T11:15:01;65.90;;;24.27;;
39994;SDS011;25686;51.908;10.418;2022-12-10T11:19:16;61.03;;;23.63;;
39994;SDS011;25686;51.908;10.418;2022-12-10T11:21:20;64.63;;;24.63;;
39994;SDS011;25686;51.908;10.418;2022-12-10T11:23:21;64.40;;;24.77;;
39994;SDS011;25686;51.908;10.418;2022-12-10T11:25:27;71.27;;;25.50;;
39994;SDS011;25686;51.908;10.418;2022-12-10T11:30:04;65.93;;;25.67;;
39994;SDS011;25686;51.908;10.418;2022-12-10T11:34:48;64.30;;;24.90;;
39994;SDS011;25686;51.908;10.418;2022-12-10T11:43:14;59.37;;;23.13;;
39994;SDS011;25686;51.908;10.418;2022-12-10T11:52:55;58.53;;;22.17;;
39994;SDS011;25686;51.908;10.418;2022-12-10T11:56:52;64.93;;;22.13;;
39994;SDS011;25686;51.908;10.418;2022-12-10T11:59:34;59.63;;;22.60;;
39994;SDS011;25686;51.908;10.418;2022-12-10T12:01:42;64.87;;;22.80;;
39994;SDS011;25686;51.908;10.418;2022-12-10T12:03:50;64.20;;;22.50;;
39994;SDS011;25686;51.908;10.418;2022-12-10T12:12:26;59.83;;;23.03;;
39994;SDS011;25686;51.908;10.418;2022-12-10T12:14:42;68.40;;;24.33;;
39994;SDS011;25686;51.908;10.418;2022-12-10T12:16:52;65.07;;;23.70;;
39994;SDS011;25686;51.908;10.418;2022-12-10T12:18:59;65.37;;;23.43;;
39994;SDS011;25686;51.908;10.418;2022-12-10T12:21:02;69.87;;;25.07;;
39994;SDS011;25686;51.908;10.418;2022-12-10T12:23:24;70.93;;;26.20;;
39994;SDS011;25686;51.908;10.418;2022-12-10T12:25:38;62.87;;;21.57;;
39994;SDS011;25686;51.908;10.418;2022-12-10T12:27:43;73.13;;;25.50;;
39994;SDS011;25686;51.908;10.418;2022-12-10T12:29:59;70.97;;;26.07;;
39994;SDS011;25686;51.908;10.418;2022-12-10T12:32:21;71.83;;;26.83;;
39994;SDS011;25686;51.908;10.418;2022-12-10T12:34:26;79.30;;;28.87;;
39994;SDS011;25686;51.908;10.418;2022-12-10T12:36:30;73.00;;;25.73;;
39994;SDS011;25686;51.908;10.418;2022-12-10T12:38:47;63.10;;;22.60;;